SLCO/CIJ METAR and TAF weather

Enter ICAO airport designator
Station Type Date Time Source
SLCO METAR 2021/03/02 17:00 UTC NOAA

SLCO 021700Z 32006KT 9999 BKN017 29/25 Q1009


Station Type Date Time Source
SLCO Decoded METAR 2021/03/02 17:00 UTC NOAA

Cobija, Bolivia (SLCO) 11-02S 068-47W 260M
Mar 02, 2021 - 12:00 PM EST / 2021.03.02 1700 UTC
Wind: from the NW (320 degrees) at 7 MPH (6 KT):0
Visibility: greater than 7 mile(s):0
Sky conditions: mostly cloudy
Temperature: 84 F (29 C)
Dew Point: 77 F (25 C)
Relative Humidity: 79%
Pressure (altimeter): 29.80 in. Hg (1009 hPa)
ob: SLCO 021700Z 32006KT 9999 BKN017 29/25 Q1009
cycle: 17

Station Type Date Time Source
SLCO TAF 2021/03/02 18:54 UTC NOAA

TAF SLCO 021650Z 0218/0318 32008KT 9999 BKN017 TX32/0220Z TN22/0310Z
TEMPO 0220/0223 8000 SHRA FEW023CB
BECMG 0223/0302 00000KT FEW017
BECMG 0312/0314 30006KT

Example: see airport list